Airfield :
LOGIN :

Register | Disclaimer

   EN    FR    IT 

 










Legend :    VFR   Marginal VFR   IFR   Intensive IFR   Very Intensive IFR
Visi :
Ceiling :
>= 8 km
>= 3000ft
5 to 8 km
1000 to 3000 ft
1500m to 5 km
500 to 1000 ft
800 to 1500m
200 to 500 ft
< 800m
< 200 ft
Symbols :   Thunderstorms  Fog  Heavy snow  Heavy precipitations  Wind > 20 kt
SIGMETs :     Misc.  Thunderstorms  Icing  Turbulence  Mountain Waves  Volcanic Ashes







- Airport Elevation : 778 ft
- IATA code : BRQ


LKTB - Brno-Turany

CURRENT METAR :
  • 132307Z 09003KT 5000 BR BKN010 OVC028 M03/M04 Q1021 R27/25//95 RMK REG QNH 1015

EXPIRED METARs :
  • 132230Z 10003KT 5000 BR OVC028 M03/M04 Q1021 R27/25//95 NOSIG
  • 132200Z 16003KT 6000 FEW010 OVC028 M04/M05 Q1021 R27/25//95 TEMPO 5000 BR
  • 132130Z 09005KT 7000 BKN028 M03/M04 Q1021 R27/25//95 TEMPO 5000 BR
  • 132100Z 07005KT 8000 SCT027 M03/M04 Q1021 R27/25//95 NOSIG
  • 132030Z 08005KT 8000 SCT027 M03/M04 Q1021 R27/25//95 NOSIG

TAF TAF LKTB
Valid from the 13 at 18:00 until the 15 at 00:00 UTC


131700Z 1318/1500 06006KT 9999 BKN026
TEMPO 1400/1408 4000 BR SCT010 BKN015
TEMPO 1408/1418 SCT033
No reported NOTAMs for that airfield.



MET'MAP, your aeronautical weather chart ! - Copyright ORBIFLY December 2007 - Disclaimer

ORBIFLY MET'MAP TEAM :

Programming & Development : Alexandra Zaïnal
Concept & Development : Baudouin d'Aumeries
Co-Development & Prog : Marc-Olivier Méhu
Technical & hardware support : Manuel Goepfert

Contact : metmap@orbifly.com




SOURCES & CREDITS :

   NOAA